Wetterstation Rottenburg Seebronn / 442m msl / http://mut-lambrecht.de
LETZTE AKTUALISIERUNG UM: 03:10 DATUM: Dezember 15 2017, time of next update: 03:15
Aktuelles Wettermostly cloudy - rain/Night Aktuelle Temperatur 1.9°C (35.4°F), Apparent temp -1.8°C
Höchsttemperatur (seit Mitternacht)2.3°C um: 00:34 Tiefsttemperatur (seit Mitternacht)1.9°C um: 03:09
Windgeschwindigkeit (10 Minuten )10.7 kmh (5.8 kts) Windrichtung (Dir) (10 Minuten )SW (227°)
Windchill Temperatur -1.6°C Windspitzen (letzte Std)26.7 kmh (14.4 kts) um: 02:20
Windspitzen (seit Mitternacht)32.1 kmh (17.4 kts) um: 00:42 Höchstes Windmittel / Minute (seit Mitternacht)19.5 kmh (10.6 kts) um: 01:28
Regenmenge (letzte Std)0.7 mm Regenmenge (seit Mitternacht)1.4 mm (0.06 in.) at 02:48
Regenmenge diesen Monat 29.5 mm (1.16 in.) Regenmenge seit Jahresbeginn 595.2 mm (23.43 in.)
Höchste Regenmenge pro Minute (letzte Std)0.0 mm/min Höchste Regenmenge pro Stunde (letzte 6 Std)0.0 mm/stunde
Regenmenge Gestern 4.9 mm Taupunkt -0.5°C (Wet Bulb :1.0°C )
Luftfeuchtigkeit 84 %, Humidex -0.4°C Aktueller Luftdruck (auf Meereshöhe bezogen)992.0 hPa
Luftdrucktendenz +0.9 hPa (letzte Std) Trend (letzte 1 Std)leicht steigend
Luftdrucktendenz (letzte 12 Std)-6.1 hPa Luftdrucktendenz (letzte 6 Std)-1.4 hPa



Weather report/warning/Metars

Stuttgart-Echterdingen, Germany (EDDS) 48-41N 009-13E 391M
Dec 14, 2017 - 08:50 PM EST / 2017.12.15 0150 UTC
Wind: from the SSW (210 degrees) at 13 MPH (11 KT) (direction variable):0
Visibility: greater than 7 mile(s):0
Sky conditions: mostly cloudy
Weather: rain
Temperature: 39 F (4 C)
Dew Point: 35 F (2 C)
Relative Humidity: 86%
Pressure (altimeter): 29.32 in. Hg (0993 hPa)
ob: EDDS 150150Z 21011KT 180V240 9999 RA BKN014 04/02 Q0993
cycle: 2
Karlsruhe, Baden Wurttemberg, Germany (EDSB) 48-46-43N 008-04-47E
Dec 14, 2017 - 08:50 PM EST / 2017.12.15 0150 UTC
Wind: from the SW (220 degrees) at 7 MPH (6 KT):0
Visibility: greater than 7 mile(s):0
Sky conditions: mostly cloudy
Temperature: 35 F (2 C)
Windchill: 28 F (-2 C):1
Dew Point: 35 F (2 C)
Relative Humidity: 100%
Pressure (altimeter): 29.38 in. Hg (0995 hPa)
ob: EDSB 150150Z AUTO 22006KT 9999 // FEW023/// BKN028/// BKN090/// 02/02 Q0995
cycle: 2
Lahr, CAN-AFB, Germany (EDTL) 48-22-09N 007-49-40E
Dec 14, 2017 - 01:50 PM EST / 2017.12.14 1850 UTC
Wind: from the S (180 degrees) at 16 MPH (14 KT):0
Visibility: greater than 7 mile(s):0
Sky conditions: mostly cloudy
Temperature: 41 F (5 C)
Dew Point: 39 F (4 C)
Relative Humidity: 93%
Pressure (altimeter): 29.41 in. Hg (0996 hPa)
ob: EDTL 141850Z 18014KT 9999 SCT023 BKN100 05/04 Q0996
cycle: 19
Laupheim, Germany (ETHL) 48-13N 009-55E 550M
Dec 14, 2017 - 08:20 PM EST / 2017.12.15 0120 UTC
Wind: from the SSW (210 degrees) at 14 MPH (12 KT):0
Visibility: greater than 7 mile(s):0
Sky conditions: mostly cloudy
Weather: light rain
Temperature: 35 F (2 C)
Windchill: 26 F (-3 C):1
Dew Point: 33 F (1 C)
Relative Humidity: 93%
Pressure (altimeter): 29.35 in. Hg (0994 hPa)
ob: ETHL 150120Z 21012KT 9999 -RA BKN008 BKN021 02/01 Q0994 GRN
cycle: 1


Klicken Sie hier, um zu den Durchschnitts-, Extrem-, Monats- oder Tageswerten zu gelangen


Die Wetterdaten werden alle 5 Minuten aktualisiert.
Die untere höherauflösende Windgrafik wird jede Minute aktualisiert.
Bei der Windgrafik sind derzeit die Skalenfarben von Durchschnitt/Böe vertauscht

Drücken Sie gegebenenfalls auf "Aktualisieren" in Ihrem Browser, um die aktuellsten Daten zu erhalten.